sensor_id;sensor_type;location;lat;lon;timestamp;P1;durP1;ratioP1;P2;durP2;ratioP2
41629;SDS011;27322;49.488;8.480;2023-02-28T00:00:17;3.08;;;1.40;;
41629;SDS011;27322;49.488;8.480;2023-02-28T00:02:43;4.95;;;1.60;;
41629;SDS011;27322;49.488;8.480;2023-02-28T00:05:10;3.30;;;1.40;;
41629;SDS011;27322;49.488;8.480;2023-02-28T00:07:38;4.45;;;1.55;;
41629;SDS011;27322;49.488;8.480;2023-02-28T00:10:06;4.57;;;1.55;;
41629;SDS011;27322;49.488;8.480;2023-02-28T00:12:34;3.67;;;1.70;;
41629;SDS011;27322;49.488;8.480;2023-02-28T00:15:01;3.05;;;1.45;;
41629;SDS011;27322;49.488;8.480;2023-02-28T00:17:29;4.30;;;1.63;;
41629;SDS011;27322;49.488;8.480;2023-02-28T00:19:55;3.25;;;1.48;;
41629;SDS011;27322;49.488;8.480;2023-02-28T00:22:22;3.83;;;1.60;;
41629;SDS011;27322;49.488;8.480;2023-02-28T00:24:47;5.85;;;1.48;;
41629;SDS011;27322;49.488;8.480;2023-02-28T00:27:13;4.72;;;1.65;;
41629;SDS011;27322;49.488;8.480;2023-02-28T00:29:39;3.92;;;1.80;;
41629;SDS011;27322;49.488;8.480;2023-02-28T00:32:05;4.07;;;1.42;;
41629;SDS011;27322;49.488;8.480;2023-02-28T00:34:31;3.38;;;1.60;;
41629;SDS011;27322;49.488;8.480;2023-02-28T00:37:02;4.30;;;1.85;;
41629;SDS011;27322;49.488;8.480;2023-02-28T00:39:29;4.60;;;1.73;;
41629;SDS011;27322;49.488;8.480;2023-02-28T00:41:55;3.17;;;1.50;;
41629;SDS011;27322;49.488;8.480;2023-02-28T00:44:20;3.60;;;1.60;;
41629;SDS011;27322;49.488;8.480;2023-02-28T00:46:46;4.95;;;1.52;;
41629;SDS011;27322;49.488;8.480;2023-02-28T00:49:12;3.78;;;1.70;;
41629;SDS011;27322;49.488;8.480;2023-02-28T00:51:38;4.82;;;1.90;;
41629;SDS011;27322;49.488;8.480;2023-02-28T00:54:03;3.30;;;1.80;;
41629;SDS011;27322;49.488;8.480;2023-02-28T00:56:29;4.05;;;1.73;;
41629;SDS011;27322;49.488;8.480;2023-02-28T00:58:54;4.88;;;1.92;;
41629;SDS011;27322;49.488;8.480;2023-02-28T01:01:20;4.72;;;1.90;;
41629;SDS011;27322;49.488;8.480;2023-02-28T01:03:46;4.25;;;2.10;;
41629;SDS011;27322;49.488;8.480;2023-02-28T01:06:11;4.50;;;1.75;;
41629;SDS011;27322;49.488;8.480;2023-02-28T01:08:37;3.80;;;2.00;;
41629;SDS011;27322;49.488;8.480;2023-02-28T01:11:09;5.70;;;2.03;;
41629;SDS011;27322;49.488;8.480;2023-02-28T01:13:36;4.00;;;1.67;;
41629;SDS011;27322;49.488;8.480;2023-02-28T01:16:02;5.20;;;2.25;;
41629;SDS011;27322;49.488;8.480;2023-02-28T01:18:28;5.93;;;2.00;;
41629;SDS011;27322;49.488;8.480;2023-02-28T01:20:54;4.18;;;2.20;;
41629;SDS011;27322;49.488;8.480;2023-02-28T01:23:20;5.25;;;2.13;;
41629;SDS011;27322;49.488;8.480;2023-02-28T01:25:48;4.75;;;2.20;;
41629;SDS011;27322;49.488;8.480;2023-02-28T01:28:16;6.03;;;2.08;;
41629;SDS011;27322;49.488;8.480;2023-02-28T01:30:42;5.55;;;2.53;;
41629;SDS011;27322;49.488;8.480;2023-02-28T01:33:07;4.40;;;2.10;;
41629;SDS011;27322;49.488;8.480;2023-02-28T01:35:33;4.75;;;2.28;;
41629;SDS011;27322;49.488;8.480;2023-02-28T01:38:00;5.05;;;2.40;;
41629;SDS011;27322;49.488;8.480;2023-02-28T01:40:26;4.75;;;2.15;;
41629;SDS011;27322;49.488;8.480;2023-02-28T01:42:51;3.88;;;2.15;;
41629;SDS011;27322;49.488;8.480;2023-02-28T01:48:01;4.75;;;2.38;;
41629;SDS011;27322;49.488;8.480;2023-02-28T01:50:31;4.88;;;2.65;;
41629;SDS011;27322;49.488;8.480;2023-02-28T01:53:04;4.32;;;2.20;;
41629;SDS011;27322;49.488;8.480;2023-02-28T01:55:33;4.85;;;2.30;;
41629;SDS011;27322;49.488;8.480;2023-02-28T01:58:00;4.63;;;2.40;;
41629;SDS011;27322;49.488;8.480;2023-02-28T02:00:29;4.68;;;2.42;;
41629;SDS011;27322;49.488;8.480;2023-02-28T02:02:57;6.38;;;2.70;;
41629;SDS011;27322;49.488;8.480;2023-02-28T02:05:26;6.18;;;2.80;;
41629;SDS011;27322;49.488;8.480;2023-02-28T02:08:03;4.63;;;2.43;;
41629;SDS011;27322;49.488;8.480;2023-02-28T02:28:11;5.85;;;2.75;;
41629;SDS011;27322;49.488;8.480;2023-02-28T02:33:15;6.22;;;3.05;;
41629;SDS011;27322;49.488;8.480;2023-02-28T02:41:17;7.00;;;3.00;;
41629;SDS011;27322;49.488;8.480;2023-02-28T02:44:05;7.00;;;3.13;;
41629;SDS011;27322;49.488;8.480;2023-02-28T02:46:37;4.75;;;2.92;;
41629;SDS011;27322;49.488;8.480;2023-02-28T02:49:09;5.90;;;3.05;;
41629;SDS011;27322;49.488;8.480;2023-02-28T02:51:41;6.25;;;3.10;;
41629;SDS011;27322;49.488;8.480;2023-02-28T02:54:08;6.25;;;3.05;;
41629;SDS011;27322;49.488;8.480;2023-02-28T02:56:41;7.22;;;3.22;;
41629;SDS011;27322;49.488;8.480;2023-02-28T02:59:10;6.50;;;2.95;;
41629;SDS011;27322;49.488;8.480;2023-02-28T03:01:38;5.80;;;3.10;;
41629;SDS011;27322;49.488;8.480;2023-02-28T03:04:08;6.75;;;3.30;;
41629;SDS011;27322;49.488;8.480;2023-02-28T03:06:37;6.10;;;2.90;;
41629;SDS011;27322;49.488;8.480;2023-02-28T03:09:03;5.63;;;3.35;;
41629;SDS011;27322;49.488;8.480;2023-02-28T03:11:29;6.50;;;2.90;;
41629;SDS011;27322;49.488;8.480;2023-02-28T03:16:49;5.70;;;2.95;;
41629;SDS011;27322;49.488;8.480;2023-02-28T03:36:17;6.95;;;3.28;;
41629;SDS011;27322;49.488;8.480;2023-02-28T03:38:43;6.15;;;3.13;;
41629;SDS011;27322;49.488;8.480;2023-02-28T03:41:19;5.82;;;3.20;;
41629;SDS011;27322;49.488;8.480;2023-02-28T03:44:01;6.25;;;3.40;;
41629;SDS011;27322;49.488;8.480;2023-02-28T03:46:33;5.68;;;3.33;;
41629;SDS011;27322;49.488;8.480;2023-02-28T03:49:23;6.32;;;3.58;;
41629;SDS011;27322;49.488;8.480;2023-02-28T03:51:52;7.22;;;4.10;;
41629;SDS011;27322;49.488;8.480;2023-02-28T03:54:28;5.55;;;3.10;;
41629;SDS011;27322;49.488;8.480;2023-02-28T03:59:56;6.80;;;3.38;;
41629;SDS011;27322;49.488;8.480;2023-02-28T04:02:29;8.00;;;3.58;;
41629;SDS011;27322;49.488;8.480;2023-02-28T04:04:54;8.07;;;4.10;;
41629;SDS011;27322;49.488;8.480;2023-02-28T04:07:20;7.38;;;3.65;;
41629;SDS011;27322;49.488;8.480;2023-02-28T04:09:46;6.93;;;3.53;;
41629;SDS011;27322;49.488;8.480;2023-02-28T04:12:12;7.38;;;3.90;;
41629;SDS011;27322;49.488;8.480;2023-02-28T04:14:37;8.77;;;4.18;;
41629;SDS011;27322;49.488;8.480;2023-02-28T04:17:03;6.65;;;3.50;;
41629;SDS011;27322;49.488;8.480;2023-02-28T04:19:28;7.72;;;3.80;;
41629;SDS011;27322;49.488;8.480;2023-02-28T04:21:54;9.20;;;3.55;;
41629;SDS011;27322;49.488;8.480;2023-02-28T04:24:21;5.82;;;3.50;;
41629;SDS011;27322;49.488;8.480;2023-02-28T04:26:52;6.88;;;3.63;;
41629;SDS011;27322;49.488;8.480;2023-02-28T04:29:24;6.65;;;3.88;;
41629;SDS011;27322;49.488;8.480;2023-02-28T04:31:54;4.85;;;2.95;;
41629;SDS011;27322;49.488;8.480;2023-02-28T04:34:23;6.63;;;3.58;;
41629;SDS011;27322;49.488;8.480;2023-02-28T04:36:49;7.10;;;3.70;;
41629;SDS011;27322;49.488;8.480;2023-02-28T04:39:16;7.43;;;3.72;;
41629;SDS011;27322;49.488;8.480;2023-02-28T04:41:43;6.43;;;3.65;;
41629;SDS011;27322;49.488;8.480;2023-02-28T04:44:10;7.47;;;4.10;;
41629;SDS011;27322;49.488;8.480;2023-02-28T04:46:35;7.20;;;3.65;;
41629;SDS011;27322;49.488;8.480;2023-02-28T04:49:01;8.90;;;4.30;;
41629;SDS011;27322;49.488;8.480;2023-02-28T04:51:27;6.50;;;3.80;;
41629;SDS011;27322;49.488;8.480;2023-02-28T04:53:52;9.35;;;3.90;;
41629;SDS011;27322;49.488;8.480;2023-02-28T04:56:18;6.30;;;3.70;;
41629;SDS011;27322;49.488;8.480;2023-02-28T04:58:44;5.32;;;3.33;;
41629;SDS011;27322;49.488;8.480;2023-02-28T05:01:17;5.50;;;3.30;;
41629;SDS011;27322;49.488;8.480;2023-02-28T05:03:48;7.10;;;3.78;;
41629;SDS011;27322;49.488;8.480;2023-02-28T05:06:15;8.80;;;3.72;;
41629;SDS011;27322;49.488;8.480;2023-02-28T05:08:41;6.70;;;3.60;;
41629;SDS011;27322;49.488;8.480;2023-02-28T05:11:12;6.32;;;3.38;;
41629;SDS011;27322;49.488;8.480;2023-02-28T05:13:43;6.10;;;3.17;;
41629;SDS011;27322;49.488;8.480;2023-02-28T05:16:08;6.68;;;3.70;;
41629;SDS011;27322;49.488;8.480;2023-02-28T05:18:34;6.18;;;3.60;;
41629;SDS011;27322;49.488;8.480;2023-02-28T05:21:00;5.78;;;3.58;;
41629;SDS011;27322;49.488;8.480;2023-02-28T05:23:28;6.28;;;3.85;;
41629;SDS011;27322;49.488;8.480;2023-02-28T05:25:54;5.88;;;3.53;;
41629;SDS011;27322;49.488;8.480;2023-02-28T05:28:20;6.80;;;3.70;;
41629;SDS011;27322;49.488;8.480;2023-02-28T05:30:46;5.85;;;3.45;;
41629;SDS011;27322;49.488;8.480;2023-02-28T05:33:12;6.15;;;3.50;;
41629;SDS011;27322;49.488;8.480;2023-02-28T05:35:41;6.22;;;3.47;;
41629;SDS011;27322;49.488;8.480;2023-02-28T05:38:10;6.75;;;3.63;;
41629;SDS011;27322;49.488;8.480;2023-02-28T05:40:37;6.93;;;3.85;;
41629;SDS011;27322;49.488;8.480;2023-02-28T05:43:04;9.02;;;3.83;;
41629;SDS011;27322;49.488;8.480;2023-02-28T05:45:29;6.97;;;3.70;;
41629;SDS011;27322;49.488;8.480;2023-02-28T05:47:55;6.25;;;3.75;;
41629;SDS011;27322;49.488;8.480;2023-02-28T05:50:21;6.43;;;3.60;;
41629;SDS011;27322;49.488;8.480;2023-02-28T05:52:50;8.65;;;3.90;;
41629;SDS011;27322;49.488;8.480;2023-02-28T05:55:16;7.57;;;3.85;;
41629;SDS011;27322;49.488;8.480;2023-02-28T05:57:42;6.38;;;3.60;;
41629;SDS011;27322;49.488;8.480;2023-02-28T06:00:08;7.22;;;3.72;;
41629;SDS011;27322;49.488;8.480;2023-02-28T06:02:34;8.95;;;3.80;;
41629;SDS011;27322;49.488;8.480;2023-02-28T06:04:59;7.70;;;4.00;;
41629;SDS011;27322;49.488;8.480;2023-02-28T06:07:25;7.60;;;3.65;;
41629;SDS011;27322;49.488;8.480;2023-02-28T06:09:51;7.47;;;3.97;;
41629;SDS011;27322;49.488;8.480;2023-02-28T06:12:16;6.60;;;3.80;;
41629;SDS011;27322;49.488;8.480;2023-02-28T06:14:42;5.93;;;3.65;;
41629;SDS011;27322;49.488;8.480;2023-02-28T06:17:08;7.07;;;3.92;;
41629;SDS011;27322;49.488;8.480;2023-02-28T06:19:36;10.25;;;4.75;;
41629;SDS011;27322;49.488;8.480;2023-02-28T06:22:03;7.72;;;3.95;;
41629;SDS011;27322;49.488;8.480;2023-02-28T06:24:29;6.65;;;3.75;;
41629;SDS011;27322;49.488;8.480;2023-02-28T06:26:56;6.80;;;4.18;;
41629;SDS011;27322;49.488;8.480;2023-02-28T06:29:23;7.70;;;4.40;;
41629;SDS011;27322;49.488;8.480;2023-02-28T06:31:49;7.55;;;3.90;;
41629;SDS011;27322;49.488;8.480;2023-02-28T06:34:15;8.60;;;4.18;;
41629;SDS011;27322;49.488;8.480;2023-02-28T06:36:42;6.18;;;3.60;;
41629;SDS011;27322;49.488;8.480;2023-02-28T06:39:08;11.45;;;4.50;;
41629;SDS011;27322;49.488;8.480;2023-02-28T06:41:34;8.10;;;4.40;;
41629;SDS011;27322;49.488;8.480;2023-02-28T06:44:05;7.75;;;4.40;;
41629;SDS011;27322;49.488;8.480;2023-02-28T06:46:35;8.30;;;4.47;;
41629;SDS011;27322;49.488;8.480;2023-02-28T06:49:01;7.57;;;3.97;;
41629;SDS011;27322;49.488;8.480;2023-02-28T06:51:27;7.90;;;4.40;;
41629;SDS011;27322;49.488;8.480;2023-02-28T06:53:53;8.35;;;4.20;;
41629;SDS011;27322;49.488;8.480;2023-02-28T06:56:18;8.68;;;4.03;;
41629;SDS011;27322;49.488;8.480;2023-02-28T06:58:46;8.30;;;4.75;;
41629;SDS011;27322;49.488;8.480;2023-02-28T07:01:13;8.18;;;4.40;;
41629;SDS011;27322;49.488;8.480;2023-02-28T07:03:39;8.02;;;4.43;;
41629;SDS011;27322;49.488;8.480;2023-02-28T07:06:05;8.68;;;4.18;;
41629;SDS011;27322;49.488;8.480;2023-02-28T07:08:31;8.38;;;4.45;;
41629;SDS011;27322;49.488;8.480;2023-02-28T07:10:58;8.45;;;4.45;;
41629;SDS011;27322;49.488;8.480;2023-02-28T07:13:24;9.00;;;4.80;;
41629;SDS011;27322;49.488;8.480;2023-02-28T07:15:57;9.15;;;4.50;;
41629;SDS011;27322;49.488;8.480;2023-02-28T07:18:24;9.18;;;4.70;;
41629;SDS011;27322;49.488;8.480;2023-02-28T07:20:50;9.35;;;4.88;;
41629;SDS011;27322;49.488;8.480;2023-02-28T07:23:16;9.88;;;4.82;;
41629;SDS011;27322;49.488;8.480;2023-02-28T07:25:42;7.93;;;4.78;;
41629;SDS011;27322;49.488;8.480;2023-02-28T07:28:08;9.00;;;4.93;;
41629;SDS011;27322;49.488;8.480;2023-02-28T07:30:34;11.48;;;5.03;;
41629;SDS011;27322;49.488;8.480;2023-02-28T07:33:00;10.60;;;4.75;;
41629;SDS011;27322;49.488;8.480;2023-02-28T07:35:25;8.30;;;4.57;;
41629;SDS011;27322;49.488;8.480;2023-02-28T07:37:51;10.68;;;4.53;;
41629;SDS011;27322;49.488;8.480;2023-02-28T07:40:17;9.70;;;4.40;;
41629;SDS011;27322;49.488;8.480;2023-02-28T07:42:43;8.88;;;4.50;;
41629;SDS011;27322;49.488;8.480;2023-02-28T07:45:10;7.50;;;4.65;;
41629;SDS011;27322;49.488;8.480;2023-02-28T07:47:39;10.70;;;4.45;;
41629;SDS011;27322;49.488;8.480;2023-02-28T07:50:06;8.98;;;4.75;;
41629;SDS011;27322;49.488;8.480;2023-02-28T07:52:36;10.55;;;6.03;;
41629;SDS011;27322;49.488;8.480;2023-02-28T07:55:02;9.50;;;5.55;;
41629;SDS011;27322;49.488;8.480;2023-02-28T07:57:29;8.52;;;4.88;;
41629;SDS011;27322;49.488;8.480;2023-02-28T07:59:55;10.85;;;5.30;;
41629;SDS011;27322;49.488;8.480;2023-02-28T08:02:20;10.35;;;5.30;;
41629;SDS011;27322;49.488;8.480;2023-02-28T08:04:46;10.05;;;5.22;;
41629;SDS011;27322;49.488;8.480;2023-02-28T08:07:13;8.52;;;4.72;;
41629;SDS011;27322;49.488;8.480;2023-02-28T08:09:39;11.43;;;5.93;;
41629;SDS011;27322;49.488;8.480;2023-02-28T08:12:06;10.48;;;5.63;;
41629;SDS011;27322;49.488;8.480;2023-02-28T08:14:32;9.07;;;5.28;;
41629;SDS011;27322;49.488;8.480;2023-02-28T08:16:58;9.57;;;5.30;;
41629;SDS011;27322;49.488;8.480;2023-02-28T08:19:24;11.45;;;5.55;;
41629;SDS011;27322;49.488;8.480;2023-02-28T08:21:50;8.13;;;5.13;;
41629;SDS011;27322;49.488;8.480;2023-02-28T08:24:15;8.40;;;5.10;;
41629;SDS011;27322;49.488;8.480;2023-02-28T08:26:41;10.70;;;5.40;;
41629;SDS011;27322;49.488;8.480;2023-02-28T08:29:06;11.63;;;5.28;;
41629;SDS011;27322;49.488;8.480;2023-02-28T08:31:32;8.73;;;5.20;;
41629;SDS011;27322;49.488;8.480;2023-02-28T08:33:58;9.20;;;5.15;;
41629;SDS011;27322;49.488;8.480;2023-02-28T08:36:24;9.52;;;5.82;;
41629;SDS011;27322;49.488;8.480;2023-02-28T08:38:53;12.25;;;5.68;;
41629;SDS011;27322;49.488;8.480;2023-02-28T08:41:19;9.35;;;4.95;;
41629;SDS011;27322;49.488;8.480;2023-02-28T08:43:44;10.18;;;5.78;;
41629;SDS011;27322;49.488;8.480;2023-02-28T08:46:13;10.15;;;5.95;;
41629;SDS011;27322;49.488;8.480;2023-02-28T08:48:39;8.80;;;5.38;;
41629;SDS011;27322;49.488;8.480;2023-02-28T08:51:07;9.32;;;5.45;;
41629;SDS011;27322;49.488;8.480;2023-02-28T08:53:35;9.88;;;5.53;;
41629;SDS011;27322;49.488;8.480;2023-02-28T08:56:03;11.65;;;6.03;;
41629;SDS011;27322;49.488;8.480;2023-02-28T08:58:33;9.57;;;5.07;;
41629;SDS011;27322;49.488;8.480;2023-02-28T09:01:00;13.82;;;5.90;;
41629;SDS011;27322;49.488;8.480;2023-02-28T09:03:32;9.88;;;5.40;;
41629;SDS011;27322;49.488;8.480;2023-02-28T09:05:59;11.60;;;5.90;;
41629;SDS011;27322;49.488;8.480;2023-02-28T09:08:26;9.00;;;5.03;;
41629;SDS011;27322;49.488;8.480;2023-02-28T09:10:53;9.55;;;4.95;;
41629;SDS011;27322;49.488;8.480;2023-02-28T09:13:21;10.90;;;5.20;;
41629;SDS011;27322;49.488;8.480;2023-02-28T09:15:47;9.05;;;5.15;;
41629;SDS011;27322;49.488;8.480;2023-02-28T09:18:13;8.77;;;5.22;;
41629;SDS011;27322;49.488;8.480;2023-02-28T09:20:43;9.63;;;5.30;;
41629;SDS011;27322;49.488;8.480;2023-02-28T09:23:09;10.13;;;5.90;;
41629;SDS011;27322;49.488;8.480;2023-02-28T09:25:36;10.13;;;5.30;;
41629;SDS011;27322;49.488;8.480;2023-02-28T09:28:03;8.73;;;5.50;;
41629;SDS011;27322;49.488;8.480;2023-02-28T09:30:29;10.13;;;5.88;;
41629;SDS011;27322;49.488;8.480;2023-02-28T09:32:55;8.45;;;5.25;;
41629;SDS011;27322;49.488;8.480;2023-02-28T09:35:21;8.68;;;5.32;;
41629;SDS011;27322;49.488;8.480;2023-02-28T09:37:51;10.18;;;5.25;;
41629;SDS011;27322;49.488;8.480;2023-02-28T09:40:18;9.15;;;5.25;;
41629;SDS011;27322;49.488;8.480;2023-02-28T09:42:47;8.05;;;5.43;;
41629;SDS011;27322;49.488;8.480;2023-02-28T09:48:03;11.73;;;6.45;;
41629;SDS011;27322;49.488;8.480;2023-02-28T09:50:37;9.18;;;5.18;;
41629;SDS011;27322;49.488;8.480;2023-02-28T09:53:11;10.07;;;6.15;;
41629;SDS011;27322;49.488;8.480;2023-02-28T09:55:44;9.40;;;5.53;;
41629;SDS011;27322;49.488;8.480;2023-02-28T09:58:16;9.80;;;5.47;;
41629;SDS011;27322;49.488;8.480;2023-02-28T10:01:02;10.05;;;5.47;;
41629;SDS011;27322;49.488;8.480;2023-02-28T10:03:36;10.25;;;5.85;;
41629;SDS011;27322;49.488;8.480;2023-02-28T10:09:01;9.50;;;5.50;;
41629;SDS011;27322;49.488;8.480;2023-02-28T10:11:38;9.10;;;5.38;;
41629;SDS011;27322;49.488;8.480;2023-02-28T10:22:19;11.00;;;5.80;;
41629;SDS011;27322;49.488;8.480;2023-02-28T10:24:52;10.33;;;5.23;;
41629;SDS011;27322;49.488;8.480;2023-02-28T10:32:21;9.25;;;5.68;;
41629;SDS011;27322;49.488;8.480;2023-02-28T10:37:42;9.90;;;5.35;;
41629;SDS011;27322;49.488;8.480;2023-02-28T10:43:17;10.23;;;5.65;;
41629;SDS011;27322;49.488;8.480;2023-02-28T10:46:02;10.00;;;5.50;;
41629;SDS011;27322;49.488;8.480;2023-02-28T10:50:59;11.55;;;5.70;;
41629;SDS011;27322;49.488;8.480;2023-02-28T11:01:45;9.73;;;5.55;;
41629;SDS011;27322;49.488;8.480;2023-02-28T11:09:48;8.93;;;5.50;;
41629;SDS011;27322;49.488;8.480;2023-02-28T11:12:20;11.27;;;5.45;;
41629;SDS011;27322;49.488;8.480;2023-02-28T11:15:14;10.43;;;6.05;;
41629;SDS011;27322;49.488;8.480;2023-02-28T11:18:00;8.82;;;5.38;;
41629;SDS011;27322;49.488;8.480;2023-02-28T11:20:28;10.00;;;5.50;;
41629;SDS011;27322;49.488;8.480;2023-02-28T11:22:56;9.75;;;5.45;;
41629;SDS011;27322;49.488;8.480;2023-02-28T11:25:27;10.82;;;5.95;;
41629;SDS011;27322;49.488;8.480;2023-02-28T11:28:00;11.63;;;6.32;;
41629;SDS011;27322;49.488;8.480;2023-02-28T11:30:39;10.60;;;5.93;;
41629;SDS011;27322;49.488;8.480;2023-02-28T11:36:02;9.70;;;5.88;;
41629;SDS011;27322;49.488;8.480;2023-02-28T11:38:34;10.98;;;5.70;;
41629;SDS011;27322;49.488;8.480;2023-02-28T11:44:07;8.85;;;5.50;;
41629;SDS011;27322;49.488;8.480;2023-02-28T11:58:05;10.73;;;6.07;;
41629;SDS011;27322;49.488;8.480;2023-02-28T12:06:52;12.02;;;5.97;;
41629;SDS011;27322;49.488;8.480;2023-02-28T12:28:52;10.32;;;6.03;;
41629;SDS011;27322;49.488;8.480;2023-02-28T12:31:24;8.55;;;5.63;;
41629;SDS011;27322;49.488;8.480;2023-02-28T12:33:57;10.35;;;6.13;;
41629;SDS011;27322;49.488;8.480;2023-02-28T12:36:28;10.52;;;6.03;;
41629;SDS011;27322;49.488;8.480;2023-02-28T12:38:56;9.00;;;5.60;;
41629;SDS011;27322;49.488;8.480;2023-02-28T12:41:33;10.68;;;5.97;;
41629;SDS011;27322;49.488;8.480;2023-02-28T12:44:03;9.95;;;6.10;;
41629;SDS011;27322;49.488;8.480;2023-02-28T12:46:37;10.25;;;5.72;;
41629;SDS011;27322;49.488;8.480;2023-02-28T12:49:13;9.20;;;5.80;;
41629;SDS011;27322;49.488;8.480;2023-02-28T12:51:51;10.35;;;6.22;;
41629;SDS011;27322;49.488;8.480;2023-02-28T12:54:52;9.70;;;6.10;;
41629;SDS011;27322;49.488;8.480;2023-02-28T12:57:24;9.07;;;5.72;;
41629;SDS011;27322;49.488;8.480;2023-02-28T13:05:39;11.10;;;7.00;;
41629;SDS011;27322;49.488;8.480;2023-02-28T13:11:39;9.27;;;6.32;;
41629;SDS011;27322;49.488;8.480;2023-02-28T13:14:16;11.32;;;6.85;;
41629;SDS011;27322;49.488;8.480;2023-02-28T13:17:02;11.15;;;7.03;;
41629;SDS011;27322;49.488;8.480;2023-02-28T13:19:40;11.90;;;7.00;;
41629;SDS011;27322;49.488;8.480;2023-02-28T13:24:54;12.80;;;7.55;;
41629;SDS011;27322;49.488;8.480;2023-02-28T13:27:31;11.95;;;6.82;;
41629;SDS011;27322;49.488;8.480;2023-02-28T13:29:59;9.95;;;6.32;;
41629;SDS011;27322;49.488;8.480;2023-02-28T13:32:34;10.25;;;6.43;;
41629;SDS011;27322;49.488;8.480;2023-02-28T13:37:34;11.27;;;6.53;;
41629;SDS011;27322;49.488;8.480;2023-02-28T13:40:26;11.10;;;6.90;;
41629;SDS011;27322;49.488;8.480;2023-02-28T13:45:27;10.68;;;6.60;;
41629;SDS011;27322;49.488;8.480;2023-02-28T13:50:51;11.25;;;6.85;;
41629;SDS011;27322;49.488;8.480;2023-02-28T14:09:02;12.10;;;7.15;;
41629;SDS011;27322;49.488;8.480;2023-02-28T14:11:36;12.35;;;7.45;;
41629;SDS011;27322;49.488;8.480;2023-02-28T14:14:07;11.13;;;6.80;;
41629;SDS011;27322;49.488;8.480;2023-02-28T14:16:41;10.90;;;6.90;;
41629;SDS011;27322;49.488;8.480;2023-02-28T14:19:12;10.63;;;6.75;;
41629;SDS011;27322;49.488;8.480;2023-02-28T14:33:14;11.18;;;6.68;;
41629;SDS011;27322;49.488;8.480;2023-02-28T14:35:47;12.63;;;7.18;;
41629;SDS011;27322;49.488;8.480;2023-02-28T14:38:36;11.02;;;7.00;;
41629;SDS011;27322;49.488;8.480;2023-02-28T14:41:12;13.40;;;7.22;;
41629;SDS011;27322;49.488;8.480;2023-02-28T14:44:19;11.30;;;7.30;;
41629;SDS011;27322;49.488;8.480;2023-02-28T14:46:40;10.93;;;6.20;;
41629;SDS011;27322;49.488;8.480;2023-02-28T14:49:18;13.45;;;7.05;;
41629;SDS011;27322;49.488;8.480;2023-02-28T14:52:02;11.95;;;6.90;;
41629;SDS011;27322;49.488;8.480;2023-02-28T14:54:31;11.95;;;6.68;;
41629;SDS011;27322;49.488;8.480;2023-02-28T14:56:57;10.25;;;6.88;;
41629;SDS011;27322;49.488;8.480;2023-02-28T14:59:24;13.13;;;7.32;;
41629;SDS011;27322;49.488;8.480;2023-02-28T15:07:24;12.50;;;6.82;;
41629;SDS011;27322;49.488;8.480;2023-02-28T15:12:58;13.43;;;7.00;;
41629;SDS011;27322;49.488;8.480;2023-02-28T15:15:28;13.60;;;7.55;;
41629;SDS011;27322;49.488;8.480;2023-02-28T15:17:58;13.60;;;7.60;;
41629;SDS011;27322;49.488;8.480;2023-02-28T15:20:25;10.38;;;6.88;;
41629;SDS011;27322;49.488;8.480;2023-02-28T15:22:52;12.15;;;7.35;;
41629;SDS011;27322;49.488;8.480;2023-02-28T15:25:21;10.38;;;6.97;;
41629;SDS011;27322;49.488;8.480;2023-02-28T15:27:55;11.70;;;7.25;;
41629;SDS011;27322;49.488;8.480;2023-02-28T15:30:26;13.10;;;7.43;;
41629;SDS011;27322;49.488;8.480;2023-02-28T15:35:42;11.27;;;7.72;;
41629;SDS011;27322;49.488;8.480;2023-02-28T15:40:40;12.52;;;8.20;;
41629;SDS011;27322;49.488;8.480;2023-02-28T15:43:13;13.85;;;7.57;;
41629;SDS011;27322;49.488;8.480;2023-02-28T15:48:20;12.90;;;8.13;;
41629;SDS011;27322;49.488;8.480;2023-02-28T15:51:37;11.27;;;7.63;;
41629;SDS011;27322;49.488;8.480;2023-02-28T15:53:43;12.60;;;7.95;;
41629;SDS011;27322;49.488;8.480;2023-02-28T15:58:57;11.95;;;7.57;;
41629;SDS011;27322;49.488;8.480;2023-02-28T16:01:30;11.82;;;7.55;;
41629;SDS011;27322;49.488;8.480;2023-02-28T16:04:01;12.93;;;7.70;;
41629;SDS011;27322;49.488;8.480;2023-02-28T16:08:58;11.23;;;7.00;;
41629;SDS011;27322;49.488;8.480;2023-02-28T16:11:24;11.55;;;7.13;;
41629;SDS011;27322;49.488;8.480;2023-02-28T16:13:50;10.48;;;6.90;;
41629;SDS011;27322;49.488;8.480;2023-02-28T16:16:20;11.98;;;7.68;;
41629;SDS011;27322;49.488;8.480;2023-02-28T16:18:47;12.48;;;6.93;;
41629;SDS011;27322;49.488;8.480;2023-02-28T16:21:13;14.27;;;7.95;;
41629;SDS011;27322;49.488;8.480;2023-02-28T16:23:39;12.48;;;7.13;;
41629;SDS011;27322;49.488;8.480;2023-02-28T16:26:05;12.65;;;7.28;;
41629;SDS011;27322;49.488;8.480;2023-02-28T16:28:33;14.55;;;7.60;;
41629;SDS011;27322;49.488;8.480;2023-02-28T16:31:00;13.20;;;6.65;;
41629;SDS011;27322;49.488;8.480;2023-02-28T16:33:28;11.90;;;6.85;;
41629;SDS011;27322;49.488;8.480;2023-02-28T16:35:57;11.43;;;7.20;;
41629;SDS011;27322;49.488;8.480;2023-02-28T16:38:23;15.40;;;7.05;;
41629;SDS011;27322;49.488;8.480;2023-02-28T16:40:50;12.38;;;7.00;;
41629;SDS011;27322;49.488;8.480;2023-02-28T16:43:20;13.27;;;7.80;;
41629;SDS011;27322;49.488;8.480;2023-02-28T16:45:49;11.40;;;6.82;;
41629;SDS011;27322;49.488;8.480;2023-02-28T16:48:20;11.95;;;7.45;;
41629;SDS011;27322;49.488;8.480;2023-02-28T16:50:46;13.90;;;7.53;;
41629;SDS011;27322;49.488;8.480;2023-02-28T16:53:11;12.65;;;7.03;;
41629;SDS011;27322;49.488;8.480;2023-02-28T16:55:38;14.95;;;9.18;;
41629;SDS011;27322;49.488;8.480;2023-02-28T16:58:04;12.63;;;7.63;;
41629;SDS011;27322;49.488;8.480;2023-02-28T17:00:31;12.00;;;6.80;;
41629;SDS011;27322;49.488;8.480;2023-02-28T17:02:57;11.73;;;7.30;;
41629;SDS011;27322;49.488;8.480;2023-02-28T17:05:27;11.65;;;7.20;;
41629;SDS011;27322;49.488;8.480;2023-02-28T17:07:58;11.63;;;7.00;;
41629;SDS011;27322;49.488;8.480;2023-02-28T17:10:26;10.90;;;6.97;;
41629;SDS011;27322;49.488;8.480;2023-02-28T17:12:51;10.65;;;6.57;;
41629;SDS011;27322;49.488;8.480;2023-02-28T17:15:18;11.70;;;6.93;;
41629;SDS011;27322;49.488;8.480;2023-02-28T17:17:45;16.38;;;7.15;;
41629;SDS011;27322;49.488;8.480;2023-02-28T17:20:15;13.43;;;7.65;;
41629;SDS011;27322;49.488;8.480;2023-02-28T17:22:43;14.98;;;8.38;;
41629;SDS011;27322;49.488;8.480;2023-02-28T17:25:09;15.27;;;8.43;;
41629;SDS011;27322;49.488;8.480;2023-02-28T17:27:35;12.88;;;7.47;;
41629;SDS011;27322;49.488;8.480;2023-02-28T17:30:03;15.73;;;7.57;;
41629;SDS011;27322;49.488;8.480;2023-02-28T17:32:49;14.73;;;7.78;;
41629;SDS011;27322;49.488;8.480;2023-02-28T17:35:15;13.52;;;7.53;;
41629;SDS011;27322;49.488;8.480;2023-02-28T17:37:41;15.40;;;7.43;;
41629;SDS011;27322;49.488;8.480;2023-02-28T17:40:12;12.40;;;7.32;;
41629;SDS011;27322;49.488;8.480;2023-02-28T17:42:42;17.25;;;7.63;;
41629;SDS011;27322;49.488;8.480;2023-02-28T17:45:08;13.60;;;7.25;;
41629;SDS011;27322;49.488;8.480;2023-02-28T17:47:34;12.02;;;7.10;;
41629;SDS011;27322;49.488;8.480;2023-02-28T17:50:00;13.27;;;7.72;;
41629;SDS011;27322;49.488;8.480;2023-02-28T17:52:26;12.10;;;7.70;;
41629;SDS011;27322;49.488;8.480;2023-02-28T17:54:51;15.63;;;7.88;;
41629;SDS011;27322;49.488;8.480;2023-02-28T17:57:17;12.57;;;7.60;;
41629;SDS011;27322;49.488;8.480;2023-02-28T17:59:45;15.57;;;7.40;;
41629;SDS011;27322;49.488;8.480;2023-02-28T18:02:11;12.10;;;7.13;;
41629;SDS011;27322;49.488;8.480;2023-02-28T18:04:37;13.00;;;7.35;;
41629;SDS011;27322;49.488;8.480;2023-02-28T18:07:03;13.40;;;7.53;;
41629;SDS011;27322;49.488;8.480;2023-02-28T18:09:32;13.48;;;7.55;;
41629;SDS011;27322;49.488;8.480;2023-02-28T18:11:57;15.07;;;8.35;;
41629;SDS011;27322;49.488;8.480;2023-02-28T18:14:23;13.80;;;7.80;;
41629;SDS011;27322;49.488;8.480;2023-02-28T18:16:50;12.98;;;7.70;;